Phoenix — OR3790 — position and weather

sailwx.info

Track history (hours):
 
Tides and Currents Weather Stations Pressure Air Temp Water Temp Dewpoint Dewpoint Depression Visibility Wind Speed Wind Dir Waves Ship Positions

Phoenix

Last reported at 2017-Nov-05 17:48 UTC. Time now 2017-Nov-20 17:29 UTC.
Position N 37°58' W 000°41'.
Warning: this ship's position is 14 days out of date.

Length 17 m.

Type: Pleasure craft. MMSI: 205379010.

Date/timePositionNaut miles runAvg speedWind from/ knotsBaromVisibWave heightAir tempDewpointWater temp
2017-Nov-05 17:48N 37°58' W 000°41'0 0.5
2017-Nov-05 17:30N 37°58' W 000°41'3 5.2
2017-Nov-05 17:00N 37°56' W 000°40'3 5.4
2017-Nov-05 16:30N 37°56' W 000°36'3 5.2
2017-Nov-05 15:53N 37°56' W 000°32'2 4.0
2017-Nov-05 15:30N 37°54' W 000°32'2 3.5
2017-Nov-05 15:00N 37°54' W 000°30'1 2.9
2017-Nov-05 14:30N 37°53' W 000°30'2 4.2
2017-Nov-05 14:00N 37°54' W 000°27'1 2.2
2017-Nov-05 13:30N 37°55' W 000°28'1 2.6
2017-Nov-05 13:00N 37°56' W 000°28'2 3.4
2017-Nov-05 12:22N 37°58' W 000°30'2 6.4
2017-Nov-05 12:00N 37°58' W 000°33'3 5.7
2017-Nov-05 11:30N 37°58' W 000°37'3 6.2
2017-Nov-05 11:00N 37°58' W 000°41'  
2017-Nov-02 16:15N 37°58' W 000°41'1 2.8
2017-Nov-02 15:55N 37°57' W 000°41'2 3.7
2017-Nov-02 15:30N 37°56' W 000°41'3 6.3
2017-Nov-02 14:59N 37°53' W 000°39'3 5.5
2017-Nov-02 14:30N 37°55' W 000°41'2 3.0
2017-Nov-02 14:00N 37°55' W 000°43'2 3.5
2017-Nov-02 13:30N 37°54' W 000°43'2 5.0
2017-Nov-02 13:00N 37°56' W 000°41'2 3.5
2017-Nov-02 12:30N 37°57' W 000°41'  
Track history (hours):
 
Tides and Currents Weather Stations Pressure Air Temp Water Temp Dewpoint Dewpoint Depression Visibility Wind Speed Wind Dir Waves Ship Positions

Phoenix

Last reported at 2017-Nov-05 17:48 UTC. Time now 2017-Nov-20 17:29 UTC.
Position N 37°58' W 000°41'.
Warning: this ship's position is 14 days out of date.

Length 17 m.

Type: Pleasure craft. MMSI: 205379010.

Date/timePositionNaut miles runAvg speedWind from/ knotsBaromVisibWave heightAir tempDewpointWater temp
2017-Nov-05 17:48N 37°58' W 000°41'0 0.5
2017-Nov-05 17:30N 37°58' W 000°41'3 5.2
2017-Nov-05 17:00N 37°56' W 000°40'3 5.4
2017-Nov-05 16:30N 37°56' W 000°36'3 5.2
2017-Nov-05 15:53N 37°56' W 000°32'2 4.0
2017-Nov-05 15:30N 37°54' W 000°32'2 3.5
2017-Nov-05 15:00N 37°54' W 000°30'1 2.9
2017-Nov-05 14:30N 37°53' W 000°30'2 4.2
2017-Nov-05 14:00N 37°54' W 000°27'1 2.2
2017-Nov-05 13:30N 37°55' W 000°28'1 2.6
2017-Nov-05 13:00N 37°56' W 000°28'2 3.4
2017-Nov-05 12:22N 37°58' W 000°30'2 6.4
2017-Nov-05 12:00N 37°58' W 000°33'3 5.7
2017-Nov-05 11:30N 37°58' W 000°37'3 6.2
2017-Nov-05 11:00N 37°58' W 000°41'  
2017-Nov-02 16:15N 37°58' W 000°41'1 2.8
2017-Nov-02 15:55N 37°57' W 000°41'2 3.7
2017-Nov-02 15:30N 37°56' W 000°41'3 6.3
2017-Nov-02 14:59N 37°53' W 000°39'3 5.5
2017-Nov-02 14:30N 37°55' W 000°41'2 3.0
2017-Nov-02 14:00N 37°55' W 000°43'2 3.5
2017-Nov-02 13:30N 37°54' W 000°43'2 5.0
2017-Nov-02 13:00N 37°56' W 000°41'2 3.5
2017-Nov-02 12:30N 37°57' W 000°41'  

Dump ship's entire track history